createdAt,value
2022-10-17T00:04:26.117Z,17.10
2022-10-17T00:09:28.176Z,17.20
2022-10-17T00:14:30.252Z,17.30
2022-10-17T00:19:32.336Z,17.40
2022-10-17T00:24:34.408Z,17.20
2022-10-17T00:29:36.431Z,17.20
2022-10-17T00:34:38.554Z,17.20
2022-10-17T00:39:40.615Z,17.20
2022-10-17T00:44:43.991Z,17.20
2022-10-17T00:49:47.295Z,17.20
2022-10-17T00:55:02.236Z,17.30
2022-10-17T01:00:08.948Z,17.40
2022-10-17T01:05:12.376Z,17.30
2022-10-17T01:10:15.541Z,17.40
2022-10-17T01:15:42.901Z,17.30
2022-10-17T01:21:15.115Z,17.50
2022-10-17T01:26:40.199Z,17.20
2022-10-17T01:31:48.787Z,17.00
2022-10-17T01:37:14.763Z,17.10
2022-10-17T01:42:38.839Z,17.10
2022-10-17T01:47:42.321Z,17.10
2022-10-17T01:52:59.271Z,17.20
2022-10-17T01:58:11.728Z,17.30
2022-10-17T02:03:18.834Z,17.30
2022-10-17T02:08:42.500Z,17.40
2022-10-17T02:14:03.445Z,17.40
2022-10-17T02:19:09.084Z,17.40
2022-10-17T02:24:42.913Z,17.40
2022-10-17T02:29:58.773Z,17.40
2022-10-17T02:35:03.705Z,17.40
2022-10-17T02:40:08.082Z,17.30
2022-10-17T02:45:15.776Z,17.30
2022-10-17T02:50:21.368Z,17.40
2022-10-17T02:55:31.008Z,17.30
2022-10-17T03:00:33.598Z,17.30
2022-10-17T03:05:35.872Z,17.40
2022-10-17T03:10:38.437Z,17.40
2022-10-17T03:15:41.060Z,17.30
2022-10-17T03:20:43.611Z,17.40
2022-10-17T03:30:49.134Z,17.30
2022-10-17T03:35:51.237Z,17.20
2022-10-17T03:40:57.164Z,17.20
2022-10-17T03:46:00.166Z,17.20
2022-10-17T03:51:05.963Z,17.20
2022-10-17T03:56:12.156Z,17.30
2022-10-17T04:01:16.956Z,17.10
2022-10-17T04:06:21.659Z,17.20
2022-10-17T04:11:24.057Z,17.10
2022-10-17T04:16:28.512Z,17.10
2022-10-17T04:21:31.767Z,17.10
2022-10-17T04:26:36.933Z,17.10
2022-10-17T04:31:39.578Z,17.10
2022-10-17T04:36:42.645Z,17.20
2022-10-17T04:41:45.186Z,17.10
2022-10-17T04:46:47.299Z,17.10
2022-10-17T04:51:49.431Z,17.10
2022-10-17T04:56:51.628Z,17.10
2022-10-17T05:01:54.280Z,17.10
2022-10-17T05:06:56.601Z,17.10
2022-10-17T05:12:03.451Z,17.10
2022-10-17T05:17:08.736Z,17.10
2022-10-17T05:22:11.133Z,17.20
2022-10-17T05:27:14.411Z,17.30
2022-10-17T05:32:16.936Z,17.10
2022-10-17T05:37:19.493Z,17.10
2022-10-17T05:42:22.395Z,17.10
2022-10-17T05:52:27.754Z,17.10
2022-10-17T05:57:31.639Z,17.10
2022-10-17T06:02:34.975Z,17.00
2022-10-17T06:07:37.123Z,17.00
2022-10-17T06:12:40.156Z,16.80
2022-10-17T06:17:42.367Z,17.00
2022-10-17T06:22:45.373Z,17.10
2022-10-17T06:27:48.619Z,17.10
2022-10-17T06:32:52.178Z,17.10
2022-10-17T06:37:55.182Z,17.10
2022-10-17T06:42:58.142Z,17.10
2022-10-17T06:48:02.433Z,17.10
2022-10-17T06:53:09.529Z,17.20
2022-10-17T06:58:13.096Z,17.20
2022-10-17T07:03:15.433Z,17.30
2022-10-17T07:08:17.545Z,17.30
2022-10-17T07:13:20.543Z,17.40
2022-10-17T07:18:22.700Z,17.50
2022-10-17T07:23:24.925Z,17.60
2022-10-17T07:28:28.660Z,17.80
2022-10-17T07:33:32.103Z,17.90
2022-10-17T07:38:34.926Z,18.10
2022-10-17T07:43:37.315Z,18.20
2022-10-17T07:48:41.746Z,18.20
2022-10-17T07:53:48.067Z,18.40
2022-10-17T07:58:52.855Z,18.60
2022-10-17T08:03:54.919Z,18.70
2022-10-17T08:08:57.899Z,18.80
2022-10-17T08:14:00.044Z,18.90
2022-10-17T08:19:02.327Z,19.00
2022-10-17T08:24:05.176Z,19.30
2022-10-17T08:29:14.049Z,19.40
2022-10-17T08:34:16.261Z,19.40
2022-10-17T08:39:18.364Z,19.40
2022-10-17T08:44:39.735Z,19.60
2022-10-17T08:49:47.056Z,19.60
2022-10-17T08:54:50.665Z,19.60
2022-10-17T08:59:54.249Z,19.70
2022-10-17T09:05:26.508Z,19.80
2022-10-17T09:10:52.481Z,19.80
2022-10-17T09:15:54.608Z,19.90
2022-10-17T09:21:15.702Z,19.90
2022-10-17T09:26:17.798Z,20.00
2022-10-17T09:31:24.010Z,20.10
2022-10-17T09:36:29.768Z,20.20
2022-10-17T09:41:45.559Z,20.20
2022-10-17T09:47:19.957Z,20.60
2022-10-17T09:52:33.784Z,20.60
2022-10-17T09:57:55.668Z,20.80
2022-10-17T10:03:18.040Z,21.00
2022-10-17T10:08:28.407Z,21.20
2022-10-17T10:13:32.390Z,21.40
2022-10-17T10:18:36.248Z,21.60
2022-10-17T10:23:40.782Z,21.80
2022-10-17T10:28:53.008Z,21.90
2022-10-17T10:33:57.511Z,22.10
2022-10-17T10:39:02.514Z,22.20
2022-10-17T10:44:12.419Z,22.40
2022-10-17T10:49:31.070Z,22.60
2022-10-17T11:00:00.271Z,23.10
2022-10-17T11:05:19.561Z,23.10
2022-10-17T11:10:40.467Z,23.30
2022-10-17T11:16:01.984Z,23.60
2022-10-17T11:21:36.981Z,24.20
2022-10-17T11:26:49.067Z,24.20
2022-10-17T11:31:55.127Z,24.80
2022-10-17T11:37:02.530Z,24.80
2022-10-17T11:42:10.362Z,25.40
2022-10-17T11:47:30.720Z,25.90
2022-10-17T11:52:56.544Z,26.20
2022-10-17T11:58:22.582Z,26.70
2022-10-17T12:03:46.618Z,27.00
2022-10-17T12:09:11.844Z,27.00
2022-10-17T12:14:47.969Z,27.20
2022-10-17T12:19:50.122Z,27.50
2022-10-17T12:25:03.410Z,27.70
2022-10-17T12:30:27.412Z,28.10
2022-10-17T12:35:31.579Z,28.40
2022-10-17T12:40:36.343Z,28.70
2022-10-17T12:45:55.799Z,29.10
2022-10-17T12:56:41.448Z,29.30
2022-10-17T13:01:48.651Z,29.50
2022-10-17T13:06:58.712Z,29.60
2022-10-17T13:12:04.484Z,29.60
2022-10-17T13:17:20.405Z,29.60
2022-10-17T13:22:28.891Z,29.60
2022-10-17T13:27:33.667Z,29.60
2022-10-17T13:32:39.283Z,29.70
2022-10-17T13:37:43.636Z,29.70
2022-10-17T13:42:46.174Z,29.90
2022-10-17T13:47:48.833Z,29.80
2022-10-17T13:53:18.008Z,30.00
2022-10-17T13:58:20.409Z,30.20
2022-10-17T14:03:23.160Z,30.20
2022-10-17T14:08:25.748Z,30.20
2022-10-17T14:13:33.886Z,30.10
2022-10-17T14:18:37.797Z,30.10
2022-10-17T14:23:43.555Z,29.90
2022-10-17T14:29:03.195Z,29.80
2022-10-17T14:34:05.710Z,29.50
2022-10-17T14:39:20.665Z,29.40
2022-10-17T14:44:26.904Z,28.90
2022-10-17T14:49:35.215Z,28.70
2022-10-17T14:54:38.207Z,28.20
2022-10-17T14:59:53.823Z,27.80
2022-10-17T15:04:57.113Z,27.50
2022-10-17T15:09:59.199Z,27.50
2022-10-17T15:15:01.371Z,27.40
2022-10-17T15:20:11.932Z,27.10
2022-10-17T15:25:14.065Z,27.00
2022-10-17T15:30:32.295Z,26.80
2022-10-17T15:35:34.537Z,26.70
2022-10-17T15:40:37.018Z,26.30
2022-10-17T15:45:39.176Z,26.30
2022-10-17T15:50:41.350Z,26.10
2022-10-17T15:55:43.465Z,25.90
2022-10-17T16:00:46.623Z,25.50
2022-10-17T16:05:48.985Z,25.40
2022-10-17T16:10:51.662Z,25.10
2022-10-17T16:15:53.848Z,25.00
2022-10-17T16:20:56.101Z,24.90
2022-10-17T16:25:58.183Z,24.60
2022-10-17T16:31:00.326Z,24.60
2022-10-17T16:36:02.479Z,24.30
2022-10-17T16:41:04.799Z,24.00
2022-10-17T16:46:06.992Z,23.90
2022-10-17T16:51:09.405Z,23.80
2022-10-17T16:56:12.962Z,23.60
2022-10-17T17:01:20.769Z,23.40
2022-10-17T17:06:26.633Z,23.20
2022-10-17T17:11:29.314Z,23.10
2022-10-17T17:16:32.921Z,23.10
2022-10-17T17:21:35.846Z,23.00
2022-10-17T17:26:38.872Z,22.90
2022-10-17T17:31:41.152Z,22.90
2022-10-17T17:36:43.696Z,22.90
2022-10-17T17:41:45.820Z,22.70
2022-10-17T17:46:47.984Z,22.70
2022-10-17T17:51:50.104Z,22.60
2022-10-17T17:56:52.248Z,22.50
2022-10-17T18:01:54.364Z,22.50
2022-10-17T18:06:56.484Z,22.50
2022-10-17T18:11:58.581Z,22.30
2022-10-17T18:17:00.701Z,22.30
2022-10-17T18:22:02.928Z,22.20
2022-10-17T18:27:05.083Z,22.10
2022-10-17T18:32:07.282Z,22.00
2022-10-17T18:37:09.453Z,21.90
2022-10-17T18:42:11.884Z,21.90
2022-10-17T18:47:14.044Z,21.80
2022-10-17T18:52:16.222Z,21.80
2022-10-17T18:57:21.423Z,21.60
2022-10-17T19:07:29.252Z,21.50
2022-10-17T19:12:31.617Z,21.40
2022-10-17T19:17:33.845Z,21.30
2022-10-17T19:22:36.099Z,21.30
2022-10-17T19:27:39.317Z,21.20
2022-10-17T19:32:41.502Z,21.10
2022-10-17T19:37:43.549Z,21.10
2022-10-17T19:42:45.726Z,21.00
2022-10-17T19:47:47.858Z,20.90
2022-10-17T19:52:51.982Z,20.90
2022-10-17T19:57:54.173Z,20.70
2022-10-17T20:07:58.756Z,20.80
2022-10-17T20:13:02.305Z,20.80
2022-10-17T20:18:05.887Z,20.70
2022-10-17T20:23:07.982Z,20.70
2022-10-17T20:28:10.117Z,20.60
2022-10-17T20:38:17.229Z,20.60
2022-10-17T20:43:19.315Z,20.50
2022-10-17T20:48:21.898Z,20.40
2022-10-17T20:53:36.683Z,20.40
2022-10-17T20:58:39.706Z,20.50
2022-10-17T21:03:45.579Z,20.20
2022-10-17T21:08:49.970Z,20.20
2022-10-17T21:14:11.323Z,20.10
2022-10-17T21:19:14.530Z,20.00
2022-10-17T21:24:19.097Z,20.00
2022-10-17T21:29:22.427Z,20.00
2022-10-17T21:34:25.271Z,19.40
2022-10-17T21:39:27.371Z,19.80
2022-10-17T21:44:29.545Z,19.70
2022-10-17T21:49:31.649Z,19.60
2022-10-17T21:54:33.728Z,19.60
2022-10-17T22:04:38.329Z,19.60
2022-10-17T22:09:40.386Z,19.60
2022-10-17T22:14:44.172Z,19.40
2022-10-17T22:19:47.382Z,19.50
2022-10-17T22:24:49.497Z,19.70
2022-10-17T22:29:51.519Z,19.70
2022-10-17T22:34:53.573Z,19.50
2022-10-17T22:39:55.642Z,19.50
2022-10-17T22:44:57.708Z,19.50
2022-10-17T22:49:59.758Z,19.50
2022-10-17T22:55:01.893Z,19.40
2022-10-17T23:00:06.197Z,19.40
2022-10-17T23:05:08.690Z,19.30
2022-10-17T23:10:10.742Z,19.30
2022-10-17T23:15:12.813Z,19.30
2022-10-17T23:20:14.960Z,19.30
2022-10-17T23:25:17.184Z,19.20
2022-10-17T23:35:21.705Z,19.50
2022-10-17T23:40:24.189Z,19.40
2022-10-17T23:45:26.333Z,19.40
2022-10-17T23:50:28.502Z,19.40
2022-10-17T23:55:30.815Z,19.40
